createdAt,value
2023-01-09T00:00:48.704Z,15.40
2023-01-09T00:03:15.152Z,14.68
2023-01-09T00:05:41.656Z,15.05
2023-01-09T00:08:08.233Z,14.68
2023-01-09T00:10:34.893Z,15.07
2023-01-09T00:13:01.409Z,14.65
2023-01-09T00:15:27.844Z,14.55
2023-01-09T00:17:54.286Z,15.30
2023-01-09T00:20:20.917Z,16.42
2023-01-09T00:22:47.329Z,15.13
2023-01-09T00:25:13.820Z,16.38
2023-01-09T00:27:40.313Z,15.45
2023-01-09T00:30:07.428Z,16.13
2023-01-09T00:32:33.908Z,15.80
2023-01-09T00:35:00.313Z,16.00
2023-01-09T00:37:26.701Z,16.77
2023-01-09T00:39:53.118Z,16.63
2023-01-09T00:42:22.823Z,15.57
2023-01-09T00:44:53.108Z,16.95
2023-01-09T00:49:58.571Z,16.55
2023-01-09T00:52:25.144Z,15.65
2023-01-09T00:54:51.774Z,16.52
2023-01-09T00:57:18.348Z,16.35
2023-01-09T00:59:44.836Z,16.02
2023-01-09T01:02:11.531Z,16.40
2023-01-09T01:04:56.705Z,15.98
2023-01-09T01:07:38.333Z,16.08
2023-01-09T01:10:08.064Z,15.88
2023-01-09T01:12:34.508Z,16.30
2023-01-09T01:15:01.025Z,16.23
2023-01-09T01:17:27.490Z,16.40
2023-01-09T01:19:54.101Z,16.25
2023-01-09T01:22:20.642Z,16.08
2023-01-09T01:24:47.100Z,15.52
2023-01-09T01:27:14.324Z,14.90
2023-01-09T01:29:40.730Z,15.73
2023-01-09T01:32:07.942Z,16.27
2023-01-09T01:34:34.685Z,15.73
2023-01-09T01:37:01.149Z,15.52
2023-01-09T01:39:27.582Z,15.98
2023-01-09T01:41:54.167Z,16.27
2023-01-09T01:44:58.234Z,16.30
2023-01-09T01:47:42.980Z,16.00
2023-01-09T01:50:16.522Z,15.85
2023-01-09T01:52:48.020Z,16.77
2023-01-09T01:55:15.816Z,16.60
2023-01-09T01:57:47.348Z,16.08
2023-01-09T02:00:14.073Z,15.70
2023-01-09T02:02:40.743Z,17.05
2023-01-09T02:05:07.417Z,15.75
2023-01-09T02:07:34.908Z,17.23
2023-01-09T02:10:01.766Z,16.52
2023-01-09T02:12:28.631Z,16.10
2023-01-09T02:15:00.881Z,15.82
2023-01-09T02:18:04.565Z,16.63
2023-01-09T02:20:50.568Z,15.57
2023-01-09T02:23:33.830Z,15.48
2023-01-09T02:26:28.882Z,16.15
2023-01-09T02:29:17.166Z,15.73
2023-01-09T02:31:56.607Z,15.90
2023-01-09T02:34:55.865Z,16.92
2023-01-09T02:37:22.235Z,16.50
2023-01-09T02:40:08.551Z,15.65
2023-01-09T02:42:37.317Z,16.25
2023-01-09T02:45:04.257Z,15.45
2023-01-09T02:47:30.585Z,14.95
2023-01-09T02:50:00.725Z,15.48
2023-01-09T02:52:48.834Z,14.93
2023-01-09T02:55:36.747Z,15.27
2023-01-09T02:58:24.472Z,14.90
2023-01-09T03:01:24.644Z,14.93
2023-01-09T03:04:00.426Z,14.75
2023-01-09T03:06:45.105Z,14.80
2023-01-09T03:09:20.421Z,15.20
2023-01-09T03:11:51.643Z,15.10
2023-01-09T03:14:21.985Z,15.32
2023-01-09T03:16:53.042Z,15.77
2023-01-09T03:19:24.098Z,15.65
2023-01-09T03:21:52.071Z,15.20
2023-01-09T03:24:18.477Z,15.80
2023-01-09T03:26:45.148Z,16.10
2023-01-09T03:29:11.538Z,15.60
2023-01-09T03:31:38.028Z,16.27
2023-01-09T03:34:04.565Z,15.88
2023-01-09T03:36:31.131Z,16.27
2023-01-09T03:38:57.536Z,16.60
2023-01-09T03:41:24.087Z,15.70
2023-01-09T03:43:50.623Z,16.50
2023-01-09T03:46:17.430Z,16.02
2023-01-09T03:48:43.852Z,15.70
2023-01-09T03:51:10.610Z,15.75
2023-01-09T03:53:37.061Z,15.80
2023-01-09T03:56:03.643Z,14.98
2023-01-09T03:58:30.354Z,15.90
2023-01-09T04:01:03.187Z,14.18
2023-01-09T04:03:29.797Z,15.57
2023-01-09T04:05:56.389Z,14.73
2023-01-09T04:08:22.850Z,14.98
2023-01-09T04:10:51.026Z,14.70
2023-01-09T04:13:18.187Z,13.70
2023-01-09T04:15:44.742Z,12.98
2023-01-09T04:18:11.234Z,13.35
2023-01-09T04:20:37.734Z,12.88
2023-01-09T04:23:04.325Z,11.85
2023-01-09T04:25:30.749Z,11.93
2023-01-09T04:27:57.486Z,12.10
2023-01-09T04:30:24.038Z,12.05
2023-01-09T04:32:51.973Z,11.77
2023-01-09T04:35:19.503Z,12.90
2023-01-09T04:37:45.951Z,12.68
2023-01-09T04:40:12.881Z,13.00
2023-01-09T04:42:40.826Z,13.18
2023-01-09T04:45:09.134Z,13.07
2023-01-09T04:47:35.550Z,13.43
2023-01-09T04:50:02.301Z,13.23
2023-01-09T04:52:28.995Z,13.70
2023-01-09T04:54:55.385Z,13.95
2023-01-09T04:57:21.790Z,14.38
2023-01-09T04:59:48.185Z,15.75
2023-01-09T05:02:14.829Z,16.25
2023-01-09T05:04:41.413Z,16.00
2023-01-09T05:07:07.847Z,16.90
2023-01-09T05:09:34.709Z,16.90
2023-01-09T05:12:01.957Z,22.63
2023-01-09T05:14:28.549Z,24.95
2023-01-09T05:16:55.136Z,27.75
2023-01-09T05:19:21.674Z,27.63
2023-01-09T05:21:48.134Z,27.02
2023-01-09T05:24:14.648Z,28.00
2023-01-09T05:26:41.174Z,27.27
2023-01-09T05:29:07.597Z,26.10
2023-01-09T05:31:34.140Z,25.08
2023-01-09T05:34:00.834Z,25.02
2023-01-09T05:36:28.192Z,26.00
2023-01-09T05:38:54.626Z,25.42
2023-01-09T05:41:23.542Z,25.60
2023-01-09T05:43:50.568Z,24.92
2023-01-09T05:46:17.041Z,24.60
2023-01-09T05:48:44.536Z,24.65
2023-01-09T05:51:11.853Z,25.15
2023-01-09T05:53:38.332Z,25.05
2023-01-09T05:56:05.028Z,25.05
2023-01-09T05:58:31.420Z,25.02
2023-01-09T06:00:58.680Z,26.52
2023-01-09T06:03:25.219Z,26.60
2023-01-09T06:05:51.759Z,26.33
2023-01-09T06:08:18.208Z,26.02
2023-01-09T06:10:45.973Z,25.60
2023-01-09T06:13:12.444Z,25.60
2023-01-09T06:15:39.113Z,25.98
2023-01-09T06:18:05.606Z,25.65
2023-01-09T06:20:32.126Z,25.90
2023-01-09T06:22:58.559Z,25.63
2023-01-09T06:25:26.270Z,26.02
2023-01-09T06:27:52.921Z,26.38
2023-01-09T06:30:20.128Z,26.40
2023-01-09T06:32:49.950Z,26.58
2023-01-09T06:35:20.950Z,26.65
2023-01-09T06:37:48.272Z,26.50
2023-01-09T06:40:15.094Z,26.58
2023-01-09T06:42:45.982Z,27.23
2023-01-09T06:45:13.479Z,27.45
2023-01-09T06:47:40.339Z,27.13
2023-01-09T06:50:09.191Z,27.17
2023-01-09T06:52:36.737Z,27.65
2023-01-09T06:55:03.866Z,27.65
2023-01-09T06:57:30.674Z,27.67
2023-01-09T06:59:57.802Z,28.88
2023-01-09T07:02:24.234Z,29.33
2023-01-09T07:04:50.633Z,29.58
2023-01-09T07:07:18.401Z,30.60
2023-01-09T07:09:44.882Z,30.45
2023-01-09T07:12:11.272Z,30.67
2023-01-09T07:14:37.712Z,30.05
2023-01-09T07:17:04.151Z,31.48
2023-01-09T07:19:30.541Z,30.90
2023-01-09T07:21:56.955Z,31.98
2023-01-09T07:24:23.552Z,32.13
2023-01-09T07:26:50.034Z,31.88
2023-01-09T07:29:16.473Z,33.30
2023-01-09T07:31:43.037Z,32.17
2023-01-09T07:34:09.436Z,32.65
2023-01-09T07:36:35.846Z,33.22
2023-01-09T07:39:02.349Z,34.40
2023-01-09T07:41:28.795Z,34.28
2023-01-09T07:43:57.033Z,34.92
2023-01-09T07:46:23.545Z,36.15
2023-01-09T07:48:49.951Z,35.67
2023-01-09T07:51:16.428Z,34.88
2023-01-09T07:53:42.827Z,35.58
2023-01-09T07:56:09.248Z,36.35
2023-01-09T07:58:35.732Z,37.45
2023-01-09T08:01:02.209Z,38.05
2023-01-09T08:03:28.786Z,38.28
2023-01-09T08:05:55.337Z,37.25
2023-01-09T08:08:22.661Z,37.13
2023-01-09T08:10:49.132Z,37.95
2023-01-09T08:13:15.595Z,37.42
2023-01-09T08:15:42.061Z,37.60
2023-01-09T08:18:08.771Z,36.60
2023-01-09T08:20:35.209Z,38.15
2023-01-09T08:23:01.751Z,36.58
2023-01-09T08:25:28.113Z,37.22
2023-01-09T08:27:54.530Z,37.78
2023-01-09T08:30:21.576Z,37.28
2023-01-09T08:32:50.757Z,37.20
2023-01-09T08:35:17.502Z,38.20
2023-01-09T08:37:45.615Z,37.45
2023-01-09T08:40:13.562Z,37.70
2023-01-09T08:42:59.341Z,37.17
2023-01-09T08:45:44.210Z,37.22
2023-01-09T08:48:10.826Z,38.10
2023-01-09T08:50:37.604Z,37.67
2023-01-09T08:53:04.244Z,37.40
2023-01-09T08:55:30.715Z,37.55
2023-01-09T08:57:57.193Z,38.83
2023-01-09T09:00:24.968Z,37.22
2023-01-09T09:02:58.478Z,37.08
2023-01-09T09:05:26.581Z,35.72
2023-01-09T09:07:54.838Z,40.97
2023-01-09T09:10:23.726Z,39.38
2023-01-09T09:12:53.109Z,36.42
2023-01-09T09:15:24.116Z,37.23
2023-01-09T09:17:59.395Z,36.42
2023-01-09T09:20:29.197Z,36.75
2023-01-09T09:22:55.592Z,37.33
2023-01-09T09:25:22.767Z,35.92
2023-01-09T09:27:49.635Z,38.28
2023-01-09T09:30:18.222Z,36.03
2023-01-09T09:32:45.605Z,37.45
2023-01-09T09:35:12.420Z,38.65
2023-01-09T09:37:39.086Z,38.25
2023-01-09T09:40:17.921Z,35.72
2023-01-09T09:43:26.464Z,36.58
2023-01-09T09:46:02.787Z,34.78
2023-01-09T09:48:44.419Z,34.28
2023-01-09T09:51:22.420Z,34.20
2023-01-09T09:53:53.797Z,33.95
2023-01-09T09:56:23.136Z,32.03
2023-01-09T09:58:53.960Z,31.87
2023-01-09T10:01:33.612Z,31.85
2023-01-09T10:04:04.430Z,30.45
2023-01-09T10:06:34.204Z,29.17
2023-01-09T10:09:25.406Z,29.85
2023-01-09T10:11:54.727Z,28.00
2023-01-09T10:14:24.656Z,27.67
2023-01-09T10:17:03.436Z,25.67
2023-01-09T10:19:33.118Z,27.90
2023-01-09T10:22:47.316Z,29.48
2023-01-09T10:25:47.215Z,26.02
2023-01-09T10:28:31.834Z,28.48
2023-01-09T10:31:24.627Z,25.83
2023-01-09T10:34:14.716Z,26.17
2023-01-09T10:36:47.026Z,23.88
2023-01-09T10:39:34.507Z,23.45
2023-01-09T10:42:22.802Z,23.52
2023-01-09T10:44:56.207Z,23.33
2023-01-09T10:47:35.213Z,22.33
2023-01-09T10:50:18.062Z,20.52
2023-01-09T10:52:45.632Z,18.83
2023-01-09T10:55:39.690Z,21.30
2023-01-09T10:58:14.612Z,19.65
2023-01-09T11:00:42.112Z,18.88
2023-01-09T11:03:21.161Z,20.17
2023-01-09T11:05:54.373Z,19.55
2023-01-09T11:08:35.673Z,16.92
2023-01-09T11:11:03.098Z,18.20
2023-01-09T11:13:34.374Z,16.42
2023-01-09T11:16:23.509Z,17.33
2023-01-09T11:18:54.291Z,15.88
2023-01-09T11:21:34.054Z,15.98
2023-01-09T11:24:18.890Z,15.02
2023-01-09T11:26:47.043Z,15.48
2023-01-09T11:29:19.081Z,15.73
2023-01-09T11:31:58.211Z,14.07
2023-01-09T11:34:31.468Z,19.42
2023-01-09T11:37:10.568Z,16.10
2023-01-09T11:39:41.225Z,15.02
2023-01-09T11:42:20.199Z,14.60
2023-01-09T11:44:46.736Z,13.80
2023-01-09T11:47:39.129Z,14.57
2023-01-09T11:50:20.676Z,15.52
2023-01-09T11:53:07.258Z,14.55
2023-01-09T11:55:41.823Z,14.43
2023-01-09T11:58:17.803Z,15.63
2023-01-09T12:00:50.693Z,13.85
2023-01-09T12:03:51.186Z,13.57
2023-01-09T12:06:27.559Z,14.20
2023-01-09T12:09:04.831Z,14.32
2023-01-09T12:12:03.044Z,13.80
2023-01-09T12:14:50.583Z,13.23
2023-01-09T12:17:29.797Z,12.95
2023-01-09T12:20:20.817Z,13.88
2023-01-09T12:23:00.975Z,13.35
2023-01-09T12:25:56.790Z,13.98
2023-01-09T12:28:38.466Z,14.10
2023-01-09T12:31:07.787Z,14.13
2023-01-09T12:33:46.818Z,15.10
2023-01-09T12:36:25.648Z,14.60
2023-01-09T12:38:51.974Z,13.68
2023-01-09T12:41:53.412Z,15.55
2023-01-09T12:44:48.181Z,14.10
2023-01-09T12:47:34.843Z,15.93
2023-01-09T12:50:19.820Z,16.25
2023-01-09T12:53:07.669Z,18.10
2023-01-09T12:55:39.698Z,19.73
2023-01-09T12:58:41.336Z,19.67
2023-01-09T13:01:15.155Z,19.40
2023-01-09T13:03:47.363Z,23.13
2023-01-09T13:06:18.025Z,20.55
2023-01-09T13:08:53.242Z,22.17
2023-01-09T13:11:31.823Z,20.10
2023-01-09T13:14:22.035Z,26.48
2023-01-09T13:16:52.416Z,22.73
2023-01-09T13:19:36.818Z,20.30
2023-01-09T13:22:05.723Z,23.35
2023-01-09T13:24:53.339Z,25.20
2023-01-09T13:27:22.954Z,21.58
2023-01-09T13:30:06.615Z,26.73
2023-01-09T13:33:11.924Z,22.30
2023-01-09T13:35:53.744Z,27.13
2023-01-09T13:38:23.737Z,22.40
2023-01-09T13:41:28.960Z,21.65
2023-01-09T13:43:59.582Z,21.30
2023-01-09T13:46:43.275Z,20.67
2023-01-09T13:49:43.803Z,19.92
2023-01-09T13:52:39.254Z,20.60
2023-01-09T13:55:11.952Z,18.40
2023-01-09T13:57:43.255Z,19.08
2023-01-09T14:00:12.698Z,19.45
2023-01-09T14:02:39.093Z,19.10
2023-01-09T14:05:11.304Z,18.88
2023-01-09T14:07:40.348Z,18.73
2023-01-09T14:10:25.412Z,18.98
2023-01-09T14:12:55.708Z,18.65
2023-01-09T14:17:49.771Z,18.95
2023-01-09T14:20:34.570Z,17.80
2023-01-09T14:25:48.556Z,17.95
2023-01-09T14:28:28.950Z,18.67
2023-01-09T14:30:55.374Z,17.85
2023-01-09T14:33:25.432Z,17.52
2023-01-09T14:35:56.568Z,17.77
2023-01-09T14:38:34.482Z,17.58
2023-01-09T14:41:07.545Z,17.13
2023-01-09T14:43:53.421Z,17.23
2023-01-09T14:46:24.157Z,16.05
2023-01-09T14:49:19.148Z,17.38
2023-01-09T14:51:51.695Z,17.10
2023-01-09T14:54:29.160Z,17.42
2023-01-09T14:57:05.744Z,16.88
2023-01-09T14:59:38.686Z,17.55
2023-01-09T15:02:11.157Z,16.67
2023-01-09T15:04:41.967Z,16.98
2023-01-09T15:07:32.401Z,16.75
2023-01-09T15:10:05.116Z,16.48
2023-01-09T15:12:40.146Z,17.20
2023-01-09T15:15:13.135Z,15.85
2023-01-09T15:17:43.087Z,16.92
2023-01-09T15:20:20.703Z,17.60
2023-01-09T15:22:54.507Z,15.77
2023-01-09T15:25:39.016Z,17.60
2023-01-09T15:28:28.924Z,17.52
2023-01-09T15:31:02.942Z,17.90
2023-01-09T15:33:29.897Z,17.27
2023-01-09T15:36:02.059Z,17.98
2023-01-09T15:38:34.416Z,17.80
2023-01-09T15:41:06.806Z,17.58
2023-01-09T15:43:34.808Z,18.50
2023-01-09T15:46:01.573Z,18.45
2023-01-09T15:48:32.370Z,18.77
2023-01-09T15:51:02.489Z,20.80
2023-01-09T15:53:29.758Z,20.55
2023-01-09T15:56:30.268Z,19.52
2023-01-09T15:58:58.489Z,18.98
2023-01-09T16:01:30.347Z,20.73
2023-01-09T16:04:16.385Z,19.77
2023-01-09T16:06:51.034Z,20.33
2023-01-09T16:09:21.831Z,20.65
2023-01-09T16:11:55.384Z,20.80
2023-01-09T16:14:38.685Z,20.63
2023-01-09T16:17:08.800Z,20.73
2023-01-09T16:19:41.409Z,20.35
2023-01-09T16:22:27.833Z,20.75
2023-01-09T16:24:57.400Z,20.83
2023-01-09T16:27:33.327Z,20.08
2023-01-09T16:30:06.692Z,20.13
2023-01-09T16:32:35.733Z,21.20
2023-01-09T16:35:06.199Z,21.20
2023-01-09T16:37:33.754Z,21.63
2023-01-09T16:40:18.524Z,23.05
2023-01-09T16:43:01.286Z,23.25
2023-01-09T16:45:32.316Z,23.35
2023-01-09T16:47:59.455Z,22.20
2023-01-09T16:50:26.447Z,25.45
2023-01-09T16:52:52.968Z,25.75
2023-01-09T16:55:19.510Z,25.05
2023-01-09T16:57:46.021Z,42.53
2023-01-09T17:00:18.434Z,29.52
2023-01-09T17:02:45.274Z,26.40
2023-01-09T17:05:11.864Z,25.85
2023-01-09T17:07:38.285Z,23.45
2023-01-09T17:10:06.097Z,24.63
2023-01-09T17:12:32.544Z,25.35
2023-01-09T17:15:00.866Z,25.83
2023-01-09T17:17:27.488Z,26.73
2023-01-09T17:19:53.915Z,26.83
2023-01-09T17:22:20.381Z,28.55
2023-01-09T17:25:08.742Z,32.03
2023-01-09T17:27:56.197Z,51.63
2023-01-09T17:30:22.898Z,38.55
2023-01-09T17:32:49.481Z,31.23
2023-01-09T17:35:16.296Z,34.78
2023-01-09T17:37:43.113Z,34.40
2023-01-09T17:40:20.816Z,27.98
2023-01-09T17:42:47.268Z,25.50
2023-01-09T17:45:14.246Z,25.58
2023-01-09T17:47:40.926Z,25.60
2023-01-09T17:50:15.897Z,26.42
2023-01-09T17:52:42.410Z,26.52
2023-01-09T17:55:09.318Z,25.13
2023-01-09T17:57:35.717Z,26.70
2023-01-09T18:00:02.472Z,25.63
2023-01-09T18:02:28.923Z,27.17
2023-01-09T18:04:55.388Z,26.48
2023-01-09T18:07:21.891Z,27.23
2023-01-09T18:09:48.549Z,25.42
2023-01-09T18:12:14.974Z,26.23
2023-01-09T18:14:42.150Z,28.67
2023-01-09T18:17:11.988Z,29.05
2023-01-09T18:19:38.521Z,42.25
2023-01-09T18:22:04.979Z,31.08
2023-01-09T18:24:31.368Z,27.45
2023-01-09T18:26:57.767Z,30.20
2023-01-09T18:29:24.283Z,30.92
2023-01-09T18:31:51.685Z,31.08
2023-01-09T18:34:18.131Z,33.13
2023-01-09T18:36:44.636Z,30.42
2023-01-09T18:39:12.102Z,30.05
2023-01-09T18:41:38.484Z,32.33
2023-01-09T18:44:05.032Z,31.50
2023-01-09T18:46:32.311Z,32.47
2023-01-09T18:49:01.133Z,32.58
2023-01-09T18:51:28.689Z,33.53
2023-01-09T18:53:55.799Z,33.55
2023-01-09T18:56:23.287Z,34.22
2023-01-09T18:58:49.801Z,33.88
2023-01-09T19:01:16.438Z,34.63
2023-01-09T19:03:43.289Z,36.90
2023-01-09T19:06:10.630Z,33.90
2023-01-09T19:08:37.140Z,33.67
2023-01-09T19:11:04.352Z,33.65
2023-01-09T19:13:33.152Z,35.28
2023-01-09T19:16:00.847Z,36.88
2023-01-09T19:18:29.320Z,35.40
2023-01-09T19:20:55.817Z,36.20
2023-01-09T19:23:25.638Z,35.00
2023-01-09T19:25:53.788Z,44.08
2023-01-09T19:28:21.039Z,38.35
2023-01-09T19:30:47.455Z,37.55
2023-01-09T19:33:13.877Z,36.42
2023-01-09T19:35:40.385Z,37.15
2023-01-09T19:38:06.804Z,35.85
2023-01-09T19:40:33.222Z,37.47
2023-01-09T19:42:59.645Z,35.45
2023-01-09T19:45:26.039Z,36.30
2023-01-09T19:47:52.528Z,36.47
2023-01-09T19:50:19.103Z,35.40
2023-01-09T19:52:45.733Z,37.13
2023-01-09T19:55:14.144Z,37.67
2023-01-09T19:57:44.185Z,36.33
2023-01-09T20:00:12.622Z,36.38
2023-01-09T20:02:39.553Z,37.60
2023-01-09T20:05:07.295Z,35.85
2023-01-09T20:07:34.847Z,37.88
2023-01-09T20:10:01.511Z,37.60
2023-01-09T20:12:27.914Z,38.03
2023-01-09T20:14:54.365Z,35.55
2023-01-09T20:17:20.845Z,37.08
2023-01-09T20:19:47.232Z,36.10
2023-01-09T20:22:13.782Z,36.90
2023-01-09T20:24:40.364Z,36.08
2023-01-09T20:27:07.209Z,35.35
2023-01-09T20:29:33.802Z,36.97
2023-01-09T20:32:01.248Z,37.10
2023-01-09T20:34:27.716Z,36.90
2023-01-09T20:36:54.676Z,35.28
2023-01-09T20:39:21.555Z,38.47
2023-01-09T20:41:48.379Z,37.78
2023-01-09T20:44:15.689Z,35.22
2023-01-09T20:46:47.362Z,37.03
2023-01-09T20:49:15.975Z,38.15
2023-01-09T20:51:48.245Z,37.20
2023-01-09T20:54:16.313Z,36.80
2023-01-09T20:56:44.145Z,37.05
2023-01-09T20:59:16.942Z,38.65
2023-01-09T21:01:43.651Z,37.70
2023-01-09T21:04:10.219Z,39.33
2023-01-09T21:06:36.810Z,35.65
2023-01-09T21:09:05.026Z,39.60
2023-01-09T21:11:33.558Z,38.92
2023-01-09T21:14:00.193Z,38.55
2023-01-09T21:16:26.885Z,40.05
2023-01-09T21:18:54.750Z,38.75
2023-01-09T21:21:24.489Z,39.63
2023-01-09T21:23:53.442Z,38.67
2023-01-09T21:26:24.775Z,38.72
2023-01-09T21:28:55.159Z,38.97
2023-01-09T21:31:29.847Z,39.28
2023-01-09T21:33:56.522Z,40.67
2023-01-09T21:36:23.283Z,36.53
2023-01-09T21:38:52.097Z,37.53
2023-01-09T21:41:38.255Z,39.03
2023-01-09T21:44:24.738Z,39.20
2023-01-09T21:46:55.844Z,37.28
2023-01-09T21:49:25.404Z,39.35
2023-01-09T21:51:55.704Z,36.65
2023-01-09T21:56:50.774Z,37.80
2023-01-09T21:59:17.363Z,36.63
2023-01-09T22:01:44.156Z,36.25
2023-01-09T22:04:14.829Z,36.00
2023-01-09T22:06:41.361Z,35.13
2023-01-09T22:09:07.847Z,35.17
2023-01-09T22:11:34.306Z,35.17
2023-01-09T22:14:00.731Z,33.08
2023-01-09T22:16:27.923Z,33.58
2023-01-09T22:18:55.986Z,36.08
2023-01-09T22:21:23.541Z,34.08
2023-01-09T22:23:50.510Z,36.92
2023-01-09T22:26:18.553Z,34.20
2023-01-09T22:28:46.021Z,35.25
2023-01-09T22:31:16.896Z,34.70
2023-01-09T22:33:43.701Z,36.90
2023-01-09T22:36:12.065Z,36.83
2023-01-09T22:38:38.491Z,38.20
2023-01-09T22:41:05.280Z,35.60
2023-01-09T22:43:32.255Z,39.03
2023-01-09T22:46:03.457Z,39.30
2023-01-09T22:48:34.621Z,39.85
2023-01-09T22:51:02.760Z,39.75
2023-01-09T22:53:30.724Z,38.58
2023-01-09T22:55:59.239Z,42.00
2023-01-09T22:58:27.265Z,38.75
2023-01-09T23:00:54.482Z,40.47
2023-01-09T23:03:21.004Z,37.47
2023-01-09T23:05:47.428Z,37.63
2023-01-09T23:08:14.487Z,37.65
2023-01-09T23:10:42.221Z,39.47
2023-01-09T23:13:08.667Z,38.22
2023-01-09T23:15:35.229Z,38.03
2023-01-09T23:18:01.643Z,35.80
2023-01-09T23:20:28.025Z,35.20
2023-01-09T23:22:54.437Z,35.90
2023-01-09T23:25:20.939Z,34.92
2023-01-09T23:27:47.385Z,33.45
2023-01-09T23:30:14.053Z,33.70
2023-01-09T23:32:40.489Z,33.78
2023-01-09T23:35:07.265Z,33.05
2023-01-09T23:37:34.102Z,32.03
2023-01-09T23:40:00.539Z,34.65
2023-01-09T23:42:45.438Z,34.10
2023-01-09T23:45:11.891Z,31.92
2023-01-09T23:47:38.364Z,30.48
2023-01-09T23:50:06.916Z,30.73
2023-01-09T23:52:33.315Z,30.05
2023-01-09T23:54:59.777Z,27.33
2023-01-09T23:57:26.187Z,27.42
2023-01-09T23:59:52.564Z,27.40
